Stations météo

réclame
Mon MeteoGroup
Bourg-St-Maurice, France (7497): Température de l'air & dewpoint: 14.07.2019 16:00:00 - 20.07.2019 16:00:00 (CEST)Bourg-St-Maurice, France (7497): Température de l'air -20cm & Température de l'air -100cm: 14.07.2019 16:00:00 - 20.07.2019 16:00:00 (CEST)Bourg-St-Maurice, France (7497): Vitesse du vent & gusts: 14.07.2019 16:00:00 - 20.07.2019 16:00:00 (CEST)Bourg-St-Maurice, France (7497): Direction du vent: 14.07.2019 16:00:00 - 20.07.2019 16:00:00 (CEST)Bourg-St-Maurice, France (7497): Ensoleillement: 14.07.2019 16:00:00 - 20.07.2019 16:00:00 (CEST)Bourg-St-Maurice, France (7497): Quantités de précipitations: 14.07.2019 16:00:00 - 20.07.2019 16:00:00 (CEST)
Date & Time tt [°C] td [°C] tt -20cm [°C] tt -100cm [°C] ff [km/h] ff [knt] fx [km/h] fx [knt] dd sd [min] rr [mm]
20.07.2019 16:00:00 28,7 9,4 24,2 20,6 6 3 24 13 S 0 0,0
20.07.2019 15:00:00 29,8 7,7 24,0 20,6 9 5 25 14 SSW 22 0,0
20.07.2019 14:00:00 31,2 7,6 23,8 20,6 12 6 34 19 S 60 0,0
20.07.2019 13:00:00 30,1 10,1 23,6 20,6 9 5 25 13 S 60 0,0
20.07.2019 12:00:00 27,5 12,3 23,6 20,6 4 2 14 8 S 51 0,0
20.07.2019 11:00:00 24,3 10,6 23,6 20,6 4 2 9 5 S 43 0,0
20.07.2019 10:00:00 22,8 9,9 23,7 20,6 3 2 7 4 SE 60 0,0
20.07.2019 09:00:00 20,3 10,7 23,9 20,6 5 3 9 5 ENE 60 0,0
20.07.2019 08:00:00 17,3 10,4 24,0 20,6 0 0 5 3 N 54 0,0
20.07.2019 07:00:00 14,5 9,9 24,1 20,5 3 1 7 4 N 0 0,0
20.07.2019 06:00:00 14,9 9,9 24,3 20,6 3 1 10 5 SW 0 0,0
20.07.2019 05:00:00 15,1 9,9 24,4 20,6 3 2 7 4 N 0 0,0
20.07.2019 04:00:00 15,7 10,0 24,5 20,5 3 2 6 3 WNW 0 0,0
20.07.2019 03:00:00 16,6 10,0 24,7 20,6 4 2 11 6 N 0 0,0
20.07.2019 02:00:00 17,4 10,3 24,7 20,6 0 0 6 3 N 0 0,0
20.07.2019 01:00:00 18,6 9,9 24,8 20,5 2 1 5 3 NNE 0 0,0
20.07.2019 00:00:00 20,0 9,8 24,8 20,5 3 2 9 5 N 0 0,0
19.07.2019 23:00:00 21,5 9,4 24,9 20,5 4 2 13 7 WNW 0 0,0
19.07.2019 22:00:00 22,7 8,4 24,8 20,5 7 4 18 10 W 0 0,0
19.07.2019 21:00:00 23,6 8,1 24,8 20,5 9 5 20 11 WNW 5 0,0
19.07.2019 20:00:00 25,4 8,0 24,7 20,5 9 5 19 10 WNW 36 0,0
19.07.2019 19:00:00 28,7 8,4 24,5 20,5 7 4 28 15 S 60 0,0
19.07.2019 18:00:00 29,6 8,1 24,2 20,5 10 5 29 16 S 60 0,0
19.07.2019 17:00:00 30,2 8,6 24,0 20,5 11 6 34 18 S 60 0,0
19.07.2019 16:00:00 30,5 8,2 23,6 20,5 11 6 28 15 S 60 0,0
19.07.2019 15:00:00 29,9 7,7 23,4 20,5 10 5 30 16 S 60 0,0
19.07.2019 14:00:00 29,1 8,7 23,2 20,5 8 4 17 9 S 60 0,0
19.07.2019 13:00:00 27,3 9,6 23,0 20,5 6 3 16 8 S 60 0,0
19.07.2019 12:00:00 25,1 9,4 23,0 20,5 6 3 12 7 S 60 0,0
19.07.2019 11:00:00 22,9 9,3 23,0 20,5 6 3 11 6 S 60 0,0
19.07.2019 10:00:00 20,8 8,8 23,1 20,5 2 1 8 4 SSE 60 0,0
19.07.2019 09:00:00 18,4 8,6 23,3 20,5 3 1 7 4 E 60 0,0
19.07.2019 08:00:00 15,9 9,1 23,4 20,5 3 2 6 4 NE 54 0,0
19.07.2019 07:00:00 12,7 8,6 23,6 20,5 3 1 5 3 N 0 0,0
19.07.2019 06:00:00 13,2 8,5 23,7 20,5 0 0 5 3 N 0 0,0
19.07.2019 05:00:00 14,0 8,2 23,9 20,5 3 1 8 4 N 0 0,0
19.07.2019 04:00:00 14,2 8,6 24,0 20,5 2 1 5 3 N 0 0,0
19.07.2019 03:00:00 14,6 8,3 24,1 20,5 0 0 4 2 N 0 0,0
19.07.2019 02:00:00 15,5 8,2 24,3 20,5 0 0 4 2 N 0 0,0
19.07.2019 01:00:00 16,4 8,4 24,4 20,5 3 2 5 3 N 0 0,0
19.07.2019 00:00:00 17,6 8,4 24,4 20,5 3 1 10 5 N 0 0,0
18.07.2019 23:00:00 19,1 7,2 24,4 20,4 2 1 14 8 WNW 0 0,0
18.07.2019 22:00:00 20,1 7,1 24,4 20,4 8 4 16 8 WNW 0 0,0
18.07.2019 21:00:00 22,0 7,8 24,4 20,4 5 3 9 5 W 0 0,0
18.07.2019 20:00:00 24,5 10,4 24,3 20,4 0 0 13 7 N 36 0,0
18.07.2019 19:00:00 26,4 6,4 24,2 20,5 4 2 29 16 SW 43 0,0
18.07.2019 18:00:00 26,6 6,6 24,0 20,5 12 6 35 19 NNW 46 0,0
18.07.2019 17:00:00 27,6 5,8 23,8 20,4 9 5 25 14 W 50 0,0
18.07.2019 16:00:00 28,0 6,7 23,6 20,4 11 6 25 13 S 47 0,0
18.07.2019 15:00:00 27,9 6,0 23,3 20,4 12 7 26 14 S 60 0,0
18.07.2019 14:00:00 28,1 6,2 23,1 20,4 10 5 21 11 S 60 0,0
18.07.2019 13:00:00 26,8 3,3 23,0 20,4 6 3 16 9 SSE 60 0,0
18.07.2019 12:00:00 25,1 6,3 22,9 20,4 4 2 13 7 SSW 60 0,0
18.07.2019 11:00:00 22,7 8,0 23,0 20,4 4 2 10 6 SSW 60 0,0
18.07.2019 10:00:00 20,2 9,1 23,1 20,4 4 2 9 5 SSE 60 0,0
18.07.2019 09:00:00 17,8 8,6 23,1 20,4 4 2 7 4 S 60 0,0
18.07.2019 08:00:00 15,7 10,2 23,3 20,4 2 1 5 3 S 39 0,0
18.07.2019 07:00:00 13,8 9,2 23,5 20,5 3 2 5 3 N 16 0,0
18.07.2019 06:00:00 14,1 8,3 23,6 20,4 0 0 4 2 N 0 0,0
18.07.2019 05:00:00 14,4 9,2 23,7 20,4 0 0 4 2 N 0 0,0
18.07.2019 04:00:00 15,1 9,5 23,8 20,4 0 0 8 4 N 0 0,0
18.07.2019 03:00:00 15,7 9,1 23,9 20,4 3 1 7 4 N 0 0,0
18.07.2019 02:00:00 16,2 9,6 24,1 20,4 2 1 5 3 NE 0 0,0
18.07.2019 01:00:00 17,1 9,5 24,1 20,4 0 0 4 2 N 0 0,0
18.07.2019 00:00:00 18,1 9,2 24,2 20,4 0 0 10 5 N 0 0,0
17.07.2019 23:00:00 19,8 8,2 24,2 20,4 6 3 18 10 W 0 0,0
17.07.2019 22:00:00 20,3 7,6 24,2 20,4 6 4 11 6 WNW 0 0,0
17.07.2019 21:00:00 21,6 7,0 24,1 20,4 4 2 11 6 W 0 0,0
17.07.2019 20:00:00 24,8 7,0 24,0 20,4 3 2 20 11 WNW 37 0,0
17.07.2019 19:00:00 28,0 7,8 23,8 20,4 9 5 22 12 SSW 60 0,0
17.07.2019 18:00:00 28,3 8,0 23,6 20,4 10 6 30 16 SSW 60 0,0
17.07.2019 17:00:00 28,6 7,2 23,4 20,4 11 6 29 16 S 54 0,0
17.07.2019 16:00:00 29,1 5,8 23,1 20,4 13 7 32 18 S 60 0,0
17.07.2019 15:00:00 29,2 7,7 22,8 20,4 8 4 27 15 S 60 0,0
17.07.2019 14:00:00 28,4 9,1 22,5 20,4 10 5 20 11 S 60 0,0
17.07.2019 13:00:00 27,0 7,9 22,4 20,4 5 3 16 9 SSW 60 0,0
17.07.2019 12:00:00 25,0 10,5 22,3 20,4 7 4 15 8 SSW 60 0,0
17.07.2019 11:00:00 22,9 9,7 22,3 20,4 5 3 10 6 SSE 60 0,0
17.07.2019 10:00:00 20,5 9,4 22,4 20,4 5 3 8 4 ESE 60 0,0
17.07.2019 09:00:00 18,3 10,4 22,5 20,4 4 2 6 3 ENE 60 0,0
17.07.2019 08:00:00 15,4 10,2 22,7 20,4 4 2 6 3 NE 56 0,0
17.07.2019 07:00:00 12,6 9,4 22,9 20,4 3 2 7 4 WNW 0 0,0
17.07.2019 06:00:00 12,6 9,4 23,0 20,4 3 1 7 4 WNW 0 0,0
17.07.2019 05:00:00 13,3 9,4 23,2 20,4 2 1 8 4 NW 0 0,0
17.07.2019 04:00:00 13,8 9,8 23,3 20,4 3 2 8 4 NNE 0 0,0
17.07.2019 03:00:00 14,4 9,8 23,4 20,5 0 0 5 3 N 0 0,0
17.07.2019 02:00:00 15,2 10,2 23,5 20,4 2 1 4 2 NNW 0 0,0
17.07.2019 01:00:00 16,2 10,5 23,6 20,4 0 0 8 4 N 0 0,0
17.07.2019 00:00:00 17,7 10,3 23,6 20,5 2 1 9 5 WNW 0 0,0
16.07.2019 23:00:00 18,9 10,5 23,7 20,5 5 3 10 6 WNW 0 0,0
16.07.2019 22:00:00 20,6 11,0 23,6 20,4 5 3 9 5 W 0 0,0
16.07.2019 21:00:00 23,2 11,6 23,6 20,4 3 1 19 11 S 26 0,0
16.07.2019 20:00:00 24,5 10,0 23,5 20,5 11 6 25 13 ESE 29 0,0
16.07.2019 19:00:00 25,2 10,6 23,4 20,5 11 6 27 14 ESE 5 0,0
16.07.2019 18:00:00 25,9 11,6 23,2 20,5 8 4 24 13 SW 10 0,0
16.07.2019 17:00:00 27,4 11,0 22,9 20,5 8 5 36 20 SW 38 0,0
16.07.2019 16:00:00 28,3 10,0 22,6 20,5 9 5 30 16 S 60 0,0
16.07.2019 15:00:00 27,5 9,8 22,3 20,5 10 5 25 14 SSE 60 0,0
16.07.2019 14:00:00 26,7 8,2 22,0 20,5 8 4 19 10 S 60 0,0
16.07.2019 13:00:00 25,3 9,2 21,8 20,5 8 4 18 10 SSW 60 0,0
16.07.2019 12:00:00 23,3 10,0 21,7 20,4 6 3 14 8 S 60 0,0
16.07.2019 11:00:00 20,9 9,2 21,8 20,5 4 2 13 7 S 60 0,0
16.07.2019 10:00:00 19,4 9,8 21,8 20,5 4 2 10 5 ESE 60 0,0
16.07.2019 09:00:00 16,8 9,5 22,0 20,5 4 2 9 5 ENE 60 0,0
16.07.2019 08:00:00 14,5 9,3 22,1 20,5 2 1 9 5 NE 57 0,0
16.07.2019 07:00:00 11,5 9,7 22,3 20,5 3 2 5 3 N 0 0,0
16.07.2019 06:00:00 11,8 9,7 22,4 20,5 2 1 5 3 WSW 0 0,0
16.07.2019 05:00:00 12,8 10,2 22,5 20,5 0 0 6 3 N 0 0,0
16.07.2019 04:00:00 14,0 11,0 22,6 20,5 3 2 6 4 NNW 0 0,0
16.07.2019 03:00:00 14,1 11,1 22,8 20,5 2 1 5 3 WSW 0 0,0
16.07.2019 02:00:00 14,5 10,9 22,9 20,5 0 0 5 3 N 0 0,0
16.07.2019 01:00:00 14,5 10,7 23,0 20,5 4 2 6 3 N 0 0,0
16.07.2019 00:00:00 15,3 10,3 23,1 20,5 3 1 7 4 NW 0 0,0
15.07.2019 23:00:00 15,7 10,5 23,2 20,5 3 2 9 5 N 0 0,0
15.07.2019 22:00:00 16,9 10,3 23,2 20,5 3 1 9 5 NW 0 0,0
15.07.2019 21:00:00 18,1 10,5 23,2 20,5 4 2 13 7 WNW 0 0,0
15.07.2019 20:00:00 20,4 9,6 23,2 20,5 4 2 26 14 W 16 0,0
15.07.2019 19:00:00 22,5 6,3 23,1 20,5 13 7 41 22 NE 47 0,0
15.07.2019 18:00:00 23,6 6,4 23,0 20,5 8 4 23 12 ENE 45 0,0
15.07.2019 17:00:00 22,8 7,3 22,9 20,5 14 8 43 23 NE 10 0,0
15.07.2019 16:00:00 22,2 5,6 22,7 20,5 21 11 48 26 NE 43 0,0
15.07.2019 15:00:00 23,0 5,9 22,5 20,5 23 12 47 26 ENE 60 0,0
15.07.2019 14:00:00 19,3 9,8 22,5 20,5 6 3 19 11 S 46 0,0
15.07.2019 13:00:00 16,8 9,9 22,5 20,5 6 3 11 6 SSE 14 0,0
15.07.2019 12:00:00 15,6 10,4 22,5 20,5 4 2 11 6 E 0 0,0
15.07.2019 11:00:00 13,8 10,0 22,7 20,5 4 2 8 4 NE 0 0,0
15.07.2019 10:00:00 12,4 10,3 22,8 20,5 2 1 8 5 WNW 0 0,0
15.07.2019 09:00:00 11,5 10,2 23,0 20,5 2 1 6 4 WSW 0 0,0
15.07.2019 08:00:00 11,1 10,3 23,2 20,5 0 0 11 6 N 0 0,0
15.07.2019 07:00:00 11,2 10,1 23,4 20,5 3 1 9 5 N 0 0,0
15.07.2019 06:00:00 11,6 10,3 23,5 20,5 3 2 11 6 NW 0 0,0
15.07.2019 05:00:00 11,9 10,8 23,6 20,5 4 2 6 4 WNW 0 0,0
15.07.2019 04:00:00 12,2 10,8 23,8 20,5 4 2 24 13 W 0 1,0
15.07.2019 03:00:00 13,0 10,9 23,9 20,5 8 4 19 10 NNE 0 3,8
15.07.2019 02:00:00 15,7 8,9 24,0 20,5 8 5 26 14 S 0 0,2
15.07.2019 01:00:00 17,8 8,4 24,1 20,5 3 2 11 6 WSW 0 0,0
15.07.2019 00:00:00 18,6 7,7 24,1 20,5 6 3 11 6 W 0 0,0
14.07.2019 23:00:00 19,9 6,6 24,1 20,5 2 1 16 9 SSW 0 0,0
14.07.2019 22:00:00 21,5 5,8 24,1 20,5 5 3 26 14 SE 0 0,0
14.07.2019 21:00:00 22,3 5,2 24,0 20,5 9 5 26 14 ESE 0 0,0
14.07.2019 20:00:00 22,9 7,0 23,9 20,5 9 5 27 15 SSW 18 0,0
14.07.2019 19:00:00 25,0 8,5 23,8 20,5 11 6 35 19 S 57 0,0
14.07.2019 18:00:00 26,3 6,3 23,5 20,5 14 8 38 21 S 55 0,0
14.07.2019 17:00:00 27,0 6,9 23,2 20,5 15 8 36 20 S 60 0,0
14.07.2019 16:00:00 27,5 6,8 23,0 20,5 12 7 29 15 SSW 56 0,0

tt = Température de l'air
td = dewpoint
tt -20cm = Température de l'air -20cm
tt -100cm = Température de l'air -100cm
ff = Vitesse du vent
fx = gusts
dd = Direction du vent
sd = Ensoleillement
rr = Quantités de précipitations

stations d'obs. à proximité